Time;durP1;ratioP1;P1;durP2;ratioP2;P2;SDS_P1;SDS_P2;PMS_P1;PMS_P2;Temp;Humidity;BMP_temperature;BMP_pressure;BME280_temperature;BME280_humidity;BME280_pressure;Samples;Min_cycle;Max_cycle;Signal;HPM_P1;HPM_P2
2023/01/01 00:00:47;;;;;;;247.70;169.90;;;9.10;99.90;;;;;;4996482;28;20210;-44
2023/01/01 00:03:13;;;;;;;246.07;175.13;;;9.10;99.90;;;;;;4996800;28;20183;-44
2023/01/01 00:05:39;;;;;;;244.50;165.40;;;9.10;99.90;;;;;;4996650;28;20180;-44
2023/01/01 00:08:05;;;;;;;223.50;154.77;;;9.10;99.90;;;;;;4996682;28;20206;-42
2023/01/01 00:10:32;;;;;;;195.60;131.70;;;9.10;99.90;;;;;;4996445;28;20175;-44
2023/01/01 00:12:58;;;;;;;173.80;122.57;;;9.00;99.90;;;;;;4996394;28;20210;-42
2023/01/01 00:15:26;;;;;;;175.37;119.67;;;9.00;99.90;;;;;;4996095;28;20185;-40
2023/01/01 00:17:52;;;;;;;186.40;127.40;;;8.90;99.90;;;;;;4996532;28;20290;-44
2023/01/01 00:20:18;;;;;;;190.07;131.40;;;8.80;99.90;;;;;;4995800;28;20183;-43
2023/01/01 00:22:44;;;;;;;215.37;149.53;;;8.80;99.90;;;;;;4996250;28;20284;-42
2023/01/01 00:25:13;;;;;;;159.13;107.80;;;8.80;99.90;;;;;;5013641;28;20765;-44
2023/01/01 00:27:39;;;;;;;130.30;91.63;;;8.70;99.90;;;;;;5007678;28;20203;-44
2023/01/01 00:30:06;;;;;;;136.63;93.50;;;8.70;99.90;;;;;;4992618;28;20195;-43
2023/01/01 00:32:32;;;;;;;137.37;96.47;;;8.60;99.90;;;;;;4993014;28;20172;-43
2023/01/01 00:34:57;;;;;;;147.63;102.53;;;8.60;99.90;;;;;;4994141;28;20180;-44
2023/01/01 00:37:23;;;;;;;182.40;123.70;;;8.60;99.90;;;;;;4993931;28;20203;-44
2023/01/01 00:39:49;;;;;;;176.77;126.23;;;8.60;99.90;;;;;;4992828;28;20191;-43
2023/01/01 00:42:15;;;;;;;181.73;125.40;;;8.60;99.90;;;;;;4992685;28;20218;-44
2023/01/01 00:44:40;;;;;;;170.30;120.40;;;8.70;99.90;;;;;;4992943;28;20180;-44
2023/01/01 00:47:06;;;;;;;169.97;117.23;;;8.70;99.90;;;;;;4994042;28;20179;-44
2023/01/01 00:49:32;;;;;;;175.30;118.80;;;8.80;99.90;;;;;;4992383;28;20187;-44
2023/01/01 00:51:58;;;;;;;162.33;106.03;;;8.80;99.90;;;;;;5008599;28;20191;-43
2023/01/01 00:54:23;;;;;;;153.17;107.20;;;8.80;99.90;;;;;;4993815;28;20179;-44
2023/01/01 00:56:49;;;;;;;140.87;90.90;;;8.80;99.90;;;;;;4990274;28;20199;-44
2023/01/01 00:59:15;;;;;;;154.80;108.23;;;8.90;99.90;;;;;;5004604;28;20176;-43
2023/01/01 01:01:41;;;;;;;144.47;100.60;;;8.90;99.90;;;;;;4991334;28;20681;-44
2023/01/01 01:04:08;;;;;;;149.37;103.20;;;8.90;99.90;;;;;;5008415;28;20218;-44
2023/01/01 01:06:34;;;;;;;128.37;91.60;;;8.90;99.90;;;;;;4992524;28;20184;-43
2023/01/01 01:09:00;;;;;;;126.83;86.33;;;8.90;99.90;;;;;;5008293;28;20199;-44
2023/01/01 01:11:26;;;;;;;102.77;68.50;;;8.90;99.90;;;;;;4993131;28;20195;-44
2023/01/01 01:13:54;;;;;;;93.33;63.27;;;8.90;99.90;;;;;;4993423;28;20270;-44
2023/01/01 01:16:27;;;;;;;116.17;78.67;;;9.00;99.90;;;;;;4992066;28;20287;-44
2023/01/01 01:18:56;;;;;;;119.57;83.47;;;9.10;99.90;;;;;;4992116;28;20203;-44
2023/01/01 01:21:23;;;;;;;138.67;96.03;;;9.10;99.90;;;;;;5008504;28;20218;-44
2023/01/01 01:23:50;;;;;;;118.63;82.70;;;9.10;99.90;;;;;;4993284;28;20168;-43
2023/01/01 01:26:21;;;;;;;104.20;71.90;;;9.10;99.90;;;;;;4992203;28;20180;-44
2023/01/01 01:28:48;;;;;;;78.23;53.13;;;9.10;99.90;;;;;;4987337;28;20209;-43
2023/01/01 01:31:14;;;;;;;90.40;59.87;;;9.10;99.90;;;;;;5012210;28;20194;-44
2023/01/01 01:33:43;;;;;;;104.03;70.97;;;9.30;99.90;;;;;;5012657;28;20187;-44
2023/01/01 01:36:09;;;;;;;118.73;80.67;;;9.30;99.90;;;;;;5011430;28;20203;-44
2023/01/01 01:38:35;;;;;;;120.57;81.83;;;9.30;99.90;;;;;;5011971;28;20211;-42
2023/01/01 01:41:01;;;;;;;114.00;75.67;;;9.20;99.90;;;;;;4994548;28;20207;-44
2023/01/01 01:43:30;;;;;;;102.17;70.30;;;9.20;99.90;;;;;;4994571;28;20187;-44
2023/01/01 01:46:02;;;;;;;107.93;74.67;;;9.10;99.90;;;;;;5010986;28;20186;-44
2023/01/01 01:48:36;;;;;;;97.07;65.40;;;9.10;99.90;;;;;;4994481;28;20207;-45
2023/01/01 01:51:03;;;;;;;83.47;57.40;;;9.10;99.90;;;;;;4994667;28;20186;-44
2023/01/01 01:53:32;;;;;;;63.70;44.97;;;9.00;99.90;;;;;;4994599;28;20183;-44
2023/01/01 01:56:09;;;;;;;56.57;40.83;;;9.00;99.90;;;;;;4995001;28;20190;-44
2023/01/01 01:58:35;;;;;;;50.37;32.73;;;9.00;99.90;;;;;;5006089;28;20198;-44
2023/01/01 02:01:02;;;;;;;33.30;23.10;;;9.00;99.90;;;;;;4994244;28;20205;-44
2023/01/01 02:03:42;;;;;;;33.67;23.93;;;9.10;99.90;;;;;;4994330;28;20271;-44
2023/01/01 02:06:09;;;;;;;32.00;22.53;;;9.20;99.90;;;;;;4994534;28;20176;-44
2023/01/01 02:08:35;;;;;;;25.40;18.50;;;9.20;99.90;;;;;;4994356;28;20207;-44
2023/01/01 02:11:01;;;;;;;21.33;14.97;;;9.30;99.90;;;;;;4994035;28;20179;-43
2023/01/01 02:13:27;;;;;;;20.17;13.17;;;9.30;99.90;;;;;;5011844;28;20214;-44
2023/01/01 02:16:03;;;;;;;18.13;13.30;;;9.50;99.90;;;;;;4978264;28;20238;-44
2023/01/01 02:18:55;;;;;;;19.27;13.47;;;9.60;99.90;;;;;;5011800;28;20209;-44
2023/01/01 02:22:16;;;;;;;18.53;12.17;;;9.60;99.90;;;;;;5011747;28;20672;-44
2023/01/01 02:24:56;;;;;;;17.13;11.03;;;9.70;99.90;;;;;;4951203;28;20184;-43
2023/01/01 02:27:45;;;;;;;16.53;11.67;;;9.70;99.90;;;;;;5005050;28;20265;-44
2023/01/01 02:30:11;;;;;;;18.67;10.90;;;9.70;99.90;;;;;;4986410;28;20208;-44
2023/01/01 02:32:57;;;;;;;16.37;10.77;;;9.80;99.90;;;;;;4981915;28;20218;-42
2023/01/01 02:35:35;;;;;;;14.53;10.37;;;9.80;99.90;;;;;;4973593;28;20192;-44
2023/01/01 02:38:12;;;;;;;17.70;10.30;;;9.80;99.90;;;;;;4971036;28;20223;-44
2023/01/01 02:40:43;;;;;;;14.27;9.23;;;9.80;99.90;;;;;;4970569;28;20185;-44
2023/01/01 02:43:08;;;;;;;12.40;9.10;;;9.80;99.90;;;;;;5011262;23;20224;-37
2023/01/01 02:45:34;;;;;;;12.60;9.53;;;9.80;99.90;;;;;;4974008;28;20176;-36
2023/01/01 02:48:06;;;;;;;15.17;10.03;;;9.90;99.90;;;;;;4974589;28;20259;-36
2023/01/01 02:50:33;;;;;;;14.60;9.10;;;10.10;99.90;;;;;;4974482;28;20181;-36
2023/01/01 02:53:26;;;;;;;15.27;9.43;;;10.10;99.90;;;;;;4989902;28;20304;-36
2023/01/01 02:56:26;;;;;;;12.93;9.57;;;10.20;99.90;;;;;;4994127;28;20233;-36
2023/01/01 03:01:48;;;;;;;13.47;9.07;;;10.30;99.90;;;;;;4993814;28;20246;-36
2023/01/01 03:04:38;;;;;;;11.20;8.07;;;10.30;99.90;;;;;;4993989;28;20234;-36
2023/01/01 03:07:30;;;;;;;10.80;8.23;;;10.30;99.90;;;;;;4978414;28;20183;-36
2023/01/01 03:10:06;;;;;;;10.53;7.67;;;10.50;99.90;;;;;;4993400;28;20207;-37
2023/01/01 03:12:53;;;;;;;13.33;8.47;;;10.70;99.90;;;;;;4993748;28;20211;-37
2023/01/01 03:15:42;;;;;;;10.40;7.57;;;10.70;99.90;;;;;;4993889;28;20190;-36
2023/01/01 03:18:18;;;;;;;10.03;7.03;;;10.80;99.90;;;;;;4977210;28;20188;-37
2023/01/01 03:20:49;;;;;;;11.83;7.83;;;10.80;99.90;;;;;;4993646;28;20192;-37
2023/01/01 03:23:23;;;;;;;13.03;9.50;;;10.70;99.90;;;;;;4977034;28;20201;-38
2023/01/01 03:25:53;;;;;;;14.33;10.73;;;10.60;99.90;;;;;;4992865;28;20184;-37
2023/01/01 03:28:26;;;;;;;29.90;23.00;;;10.40;99.90;;;;;;4993505;28;20179;-38
2023/01/01 03:30:53;;;;;;;38.07;27.90;;;10.30;99.90;;;;;;4989718;28;20189;-36
2023/01/01 03:33:31;;;;;;;34.27;24.73;;;10.10;99.90;;;;;;4996924;28;20240;-36
2023/01/01 03:36:10;;;;;;;34.10;24.53;;;10.00;99.90;;;;;;4996835;28;20202;-36
2023/01/01 03:38:39;;;;;;;31.67;24.30;;;10.00;99.90;;;;;;5031341;28;20189;-36
2023/01/01 03:41:21;;;;;;;29.10;23.07;;;9.90;99.90;;;;;;5012809;28;20286;-37
2023/01/01 03:43:55;;;;;;;30.60;21.80;;;9.80;99.90;;;;;;4996274;28;20186;-37
2023/01/01 03:46:25;;;;;;;24.70;19.00;;;9.80;99.90;;;;;;4997209;28;20179;-37
2023/01/01 03:48:55;;;;;;;25.13;17.33;;;9.80;99.90;;;;;;5012809;28;20183;-38
2023/01/01 03:51:44;;;;;;;24.07;17.20;;;9.70;99.90;;;;;;5030732;28;20213;-36
2023/01/01 03:54:21;;;;;;;20.80;15.47;;;9.80;99.90;;;;;;4984654;28;20202;-37
2023/01/01 03:56:58;;;;;;;23.90;17.27;;;9.80;99.90;;;;;;5028565;28;20190;-37
2023/01/01 03:59:30;;;;;;;23.13;16.53;;;9.80;99.90;;;;;;4973948;28;20191;-36
2023/01/01 04:01:57;;;;;;;22.00;16.80;;;9.80;99.90;;;;;;4976622;28;20261;-36
2023/01/01 04:04:25;;;;;;;23.83;17.90;;;9.70;99.90;;;;;;4993017;28;20184;-37
2023/01/01 04:06:52;;;;;;;25.57;18.23;;;9.60;99.90;;;;;;5010646;28;20168;-36
2023/01/01 04:09:31;;;;;;;26.43;18.73;;;9.50;99.90;;;;;;4992752;28;20271;-36
2023/01/01 04:12:01;;;;;;;23.13;18.10;;;9.50;99.90;;;;;;5010959;28;20205;-36
2023/01/01 04:14:35;;;;;;;22.70;17.63;;;9.40;99.90;;;;;;4992879;28;20230;-36
2023/01/01 04:17:02;;;;;;;24.93;18.73;;;9.20;99.90;;;;;;5010427;28;20182;-36
2023/01/01 04:19:28;;;;;;;22.23;16.60;;;9.20;99.90;;;;;;4992473;28;20187;-36
2023/01/01 04:21:54;;;;;;;20.90;14.83;;;9.10;99.90;;;;;;4976842;28;20225;-36
2023/01/01 04:24:19;;;;;;;20.77;16.07;;;9.00;99.90;;;;;;4993172;28;20179;-36
2023/01/01 04:26:45;;;;;;;23.17;16.63;;;9.00;99.90;;;;;;5010405;28;20172;-37
2023/01/01 04:29:11;;;;;;;20.67;15.37;;;8.90;99.90;;;;;;4992449;28;20188;-36
2023/01/01 04:31:37;;;;;;;20.27;15.60;;;8.90;99.90;;;;;;4994556;28;20210;-39
2023/01/01 04:34:03;;;;;;;19.00;14.50;;;8.90;99.90;;;;;;5012280;28;20215;-36
2023/01/01 04:36:29;;;;;;;26.53;17.33;;;8.80;99.90;;;;;;5013697;28;20226;-36
2023/01/01 04:38:54;;;;;;;28.10;20.17;;;8.80;99.90;;;;;;4999407;28;20187;-36
2023/01/01 04:41:20;;;;;;;35.33;25.13;;;8.80;99.90;;;;;;5033434;28;20257;-36
2023/01/01 04:43:50;;;;;;;37.50;25.40;;;8.80;99.90;;;;;;5033893;28;20643;-36
2023/01/01 04:46:18;;;;;;;37.27;27.03;;;8.80;99.90;;;;;;5000113;28;20199;-38
2023/01/01 04:48:44;;;;;;;53.20;40.10;;;8.80;99.90;;;;;;4999726;28;20175;-36
2023/01/01 04:51:12;;;;;;;46.53;33.10;;;8.80;99.90;;;;;;5015585;28;20183;-38
2023/01/01 04:53:37;;;;;;;46.10;32.07;;;8.80;99.90;;;;;;5016790;28;20221;-38
2023/01/01 04:56:04;;;;;;;47.43;32.93;;;8.70;99.90;;;;;;5034258;28;20214;-41
2023/01/01 04:58:30;;;;;;;42.80;31.83;;;8.70;99.90;;;;;;5009053;28;20213;-36
2023/01/01 05:00:56;;;;;;;37.13;28.37;;;8.60;99.90;;;;;;5009742;28;20229;-36
2023/01/01 05:03:23;;;;;;;36.77;27.57;;;8.50;99.90;;;;;;5016528;28;20253;-36
2023/01/01 05:06:02;;;;;;;52.80;36.93;;;8.40;99.90;;;;;;5015805;28;20175;-36
2023/01/01 05:08:29;;;;;;;41.83;30.87;;;8.30;99.90;;;;;;4999701;28;20175;-38
2023/01/01 05:11:16;;;;;;;45.57;32.93;;;8.20;99.90;;;;;;4998936;28;20187;-37
2023/01/01 05:13:44;;;;;;;50.83;34.37;;;8.10;99.90;;;;;;4998792;28;20249;-38
2023/01/01 05:16:12;;;;;;;60.33;42.27;;;8.00;99.90;;;;;;5015248;28;20185;-38
2023/01/01 05:18:39;;;;;;;71.73;50.60;;;8.00;99.90;;;;;;5032854;28;20190;-38
2023/01/01 05:21:14;;;;;;;59.37;42.70;;;8.00;99.90;;;;;;4998968;28;20203;-37
2023/01/01 05:23:40;;;;;;;61.07;39.07;;;8.00;99.90;;;;;;5032554;28;20186;-36
2023/01/01 05:26:10;;;;;;;47.70;31.33;;;8.00;99.90;;;;;;5033214;28;20178;-36
2023/01/01 05:28:36;;;;;;;35.87;25.53;;;8.00;99.90;;;;;;5017142;28;20179;-37
2023/01/01 05:31:07;;;;;;;30.60;21.07;;;8.00;99.90;;;;;;5013770;28;20628;-37
2023/01/01 05:33:33;;;;;;;27.80;19.03;;;8.00;99.90;;;;;;4996204;28;20194;-39
2023/01/01 05:35:59;;;;;;;35.37;24.00;;;8.10;99.90;;;;;;4995941;28;20266;-38
2023/01/01 05:38:25;;;;;;;26.90;17.80;;;8.20;99.90;;;;;;4979273;28;20321;-37
2023/01/01 05:40:51;;;;;;;24.87;15.70;;;8.30;99.90;;;;;;5012725;28;20198;-37
2023/01/01 05:43:17;;;;;;;22.77;15.00;;;8.30;99.90;;;;;;4995478;28;20207;-36
2023/01/01 05:45:43;;;;;;;22.00;14.30;;;8.30;99.90;;;;;;4996026;28;20179;-37
2023/01/01 05:48:10;;;;;;;22.00;15.27;;;8.30;99.90;;;;;;4995492;28;20179;-38
2023/01/01 05:50:36;;;;;;;22.47;14.53;;;8.30;99.90;;;;;;4994884;28;20186;-37
2023/01/01 05:53:02;;;;;;;20.77;14.70;;;8.20;99.90;;;;;;4994849;28;20199;-36
2023/01/01 05:55:28;;;;;;;21.50;16.00;;;8.20;99.90;;;;;;4978859;28;20683;-39
2023/01/01 05:57:54;;;;;;;23.77;16.03;;;8.20;99.90;;;;;;4995449;28;20179;-38
2023/01/01 06:00:21;;;;;;;24.10;15.87;;;8.10;99.90;;;;;;5012893;28;20210;-40
2023/01/01 06:02:49;;;;;;;22.20;15.07;;;8.10;99.90;;;;;;4996270;28;20282;-39
2023/01/01 06:05:15;;;;;;;21.37;15.00;;;8.10;99.90;;;;;;4995240;28;20183;-38
2023/01/01 06:07:41;;;;;;;19.80;14.73;;;8.10;99.90;;;;;;4994067;28;20187;-38
2023/01/01 06:10:07;;;;;;;21.40;15.07;;;8.10;99.90;;;;;;4995749;28;20190;-37
2023/01/01 06:12:34;;;;;;;22.13;15.60;;;8.00;99.90;;;;;;5012561;28;20199;-38
2023/01/01 06:15:00;;;;;;;21.60;15.40;;;8.00;99.90;;;;;;4978975;28;20184;-38
2023/01/01 06:17:26;;;;;;;23.03;15.63;;;8.00;99.90;;;;;;4996134;28;20222;-36
2023/01/01 06:19:52;;;;;;;23.70;15.97;;;8.00;99.90;;;;;;4994297;28;20191;-36
2023/01/01 06:22:18;;;;;;;23.13;16.83;;;8.00;99.90;;;;;;4995312;28;20231;-36
2023/01/01 06:24:43;;;;;;;23.13;16.37;;;8.00;99.90;;;;;;4995776;28;20180;-38
2023/01/01 06:27:09;;;;;;;23.07;16.13;;;7.90;99.90;;;;;;5012365;28;20316;-38
2023/01/01 06:29:35;;;;;;;21.97;14.90;;;7.90;99.90;;;;;;4994807;28;20179;-36
2023/01/01 06:32:01;;;;;;;22.80;15.47;;;7.90;99.90;;;;;;5012165;28;20199;-36
2023/01/01 06:34:27;;;;;;;19.93;14.37;;;7.80;99.90;;;;;;4979024;28;20195;-38
2023/01/01 06:36:52;;;;;;;19.20;14.37;;;7.90;99.90;;;;;;4977736;28;20255;-36
2023/01/01 06:39:18;;;;;;;20.67;14.50;;;7.90;99.90;;;;;;4980587;28;20291;-36
2023/01/01 06:41:44;;;;;;;17.23;12.17;;;7.90;99.90;;;;;;5012274;28;20272;-38
2023/01/01 06:44:10;;;;;;;14.80;11.57;;;8.00;99.90;;;;;;4994423;28;20185;-37
2023/01/01 06:46:37;;;;;;;14.83;11.20;;;8.00;99.90;;;;;;4994145;28;20172;-37
2023/01/01 06:49:05;;;;;;;17.83;11.80;;;7.90;99.90;;;;;;5011451;28;20182;-38
2023/01/01 06:51:42;;;;;;;15.47;10.90;;;7.90;99.90;;;;;;4993604;28;20250;-38
2023/01/01 06:54:09;;;;;;;14.97;11.27;;;7.90;99.90;;;;;;4994018;28;20183;-37
2023/01/01 06:56:36;;;;;;;14.77;10.50;;;7.90;99.90;;;;;;4993543;28;20214;-38
2023/01/01 06:59:03;;;;;;;16.20;10.53;;;7.80;99.90;;;;;;5010780;28;20178;-38
2023/01/01 07:01:31;;;;;;;15.73;10.17;;;7.80;99.90;;;;;;5011614;28;20219;-35
2023/01/01 07:04:03;;;;;;;16.00;10.80;;;7.70;99.90;;;;;;4993763;28;20240;-36
2023/01/01 07:06:30;;;;;;;16.67;10.43;;;7.70;99.90;;;;;;4993726;28;20179;-38
2023/01/01 07:08:56;;;;;;;16.83;11.23;;;7.70;99.90;;;;;;5011037;28;20198;-38
2023/01/01 07:11:22;;;;;;;13.20;10.30;;;7.70;99.90;;;;;;4978105;28;20183;-35
2023/01/01 07:13:48;;;;;;;14.90;11.63;;;7.70;99.90;;;;;;4994130;28;20202;-38
2023/01/01 07:16:14;;;;;;;17.43;10.90;;;7.70;99.90;;;;;;4979115;28;20178;-36
2023/01/01 07:18:40;;;;;;;15.53;11.60;;;7.70;99.90;;;;;;4993373;28;20187;-36
2023/01/01 07:21:23;;;;;;;15.87;11.77;;;7.70;99.90;;;;;;4978594;28;20296;-38
2023/01/01 07:23:48;;;;;;;14.37;10.40;;;7.60;99.90;;;;;;4979179;28;20210;-35
2023/01/01 07:26:14;;;;;;;18.43;12.63;;;7.50;99.90;;;;;;4977516;28;20277;-38
2023/01/01 07:28:40;;;;;;;19.30;12.37;;;7.50;99.90;;;;;;4994048;28;20317;-37
2023/01/01 07:31:06;;;;;;;16.80;12.73;;;7.50;99.90;;;;;;5012548;28;20187;-37
2023/01/01 07:33:31;;;;;;;16.73;12.47;;;7.50;99.90;;;;;;4977698;28;20280;-38
2023/01/01 07:35:57;;;;;;;17.53;11.50;;;7.50;99.90;;;;;;4994494;28;20182;-38
2023/01/01 07:38:23;;;;;;;19.03;12.43;;;7.50;99.90;;;;;;4993927;28;20186;-36
2023/01/01 07:40:49;;;;;;;17.67;11.97;;;7.60;99.90;;;;;;4993337;28;20191;-38
2023/01/01 07:43:14;;;;;;;19.20;12.97;;;7.60;99.90;;;;;;4993074;28;20207;-36
2023/01/01 07:45:40;;;;;;;16.50;11.73;;;7.70;99.90;;;;;;4992955;28;20202;-38
2023/01/01 07:48:08;;;;;;;15.50;10.20;;;7.70;99.90;;;;;;4994557;28;20186;-38
2023/01/01 07:50:37;;;;;;;17.20;11.43;;;7.80;99.90;;;;;;5011469;28;20183;-37
2023/01/01 07:53:02;;;;;;;16.67;10.83;;;7.90;99.90;;;;;;4993027;28;20203;-36
2023/01/01 07:55:28;;;;;;;17.80;11.97;;;7.90;99.90;;;;;;5011821;28;20194;-35
2023/01/01 07:57:54;;;;;;;20.70;13.23;;;7.90;99.90;;;;;;5011698;28;20183;-36
2023/01/01 08:00:21;;;;;;;18.90;13.47;;;7.90;99.90;;;;;;4994441;28;20187;-36
2023/01/01 08:02:47;;;;;;;17.13;12.10;;;7.70;99.90;;;;;;4976585;28;20219;-38
2023/01/01 08:05:13;;;;;;;15.37;10.43;;;7.70;99.90;;;;;;4992944;28;20186;-36
2023/01/01 08:07:39;;;;;;;15.83;10.43;;;7.70;99.90;;;;;;4976863;28;20183;-36
2023/01/01 08:10:06;;;;;;;15.40;9.70;;;7.70;99.90;;;;;;5010941;28;20187;-37
2023/01/01 08:12:32;;;;;;;16.03;9.87;;;7.80;99.90;;;;;;4980373;28;20203;-37
2023/01/01 08:14:58;;;;;;;13.53;9.00;;;7.80;99.90;;;;;;4997345;28;20654;-35
2023/01/01 08:17:24;;;;;;;14.33;9.20;;;7.90;99.90;;;;;;4997073;28;20179;-36
2023/01/01 08:19:51;;;;;;;12.57;9.07;;;7.90;99.90;;;;;;4980545;28;20187;-37
2023/01/01 08:22:17;;;;;;;12.70;8.93;;;8.00;99.90;;;;;;4981032;28;20242;-37
2023/01/01 08:24:43;;;;;;;16.83;9.10;;;8.00;99.90;;;;;;4997676;28;20179;-36
2023/01/01 08:27:14;;;;;;;12.77;9.33;;;8.00;99.90;;;;;;5014736;28;20191;-38
2023/01/01 08:29:41;;;;;;;15.93;10.80;;;8.00;99.90;;;;;;4980094;28;20187;-40
2023/01/01 08:32:10;;;;;;;26.13;16.87;;;8.00;99.90;;;;;;5014836;28;20291;-36
2023/01/01 08:34:36;;;;;;;25.20;16.20;;;7.90;99.90;;;;;;4998065;28;20202;-38
2023/01/01 08:37:02;;;;;;;27.60;19.77;;;7.90;99.90;;;;;;4997659;28;20219;-38
2023/01/01 08:39:28;;;;;;;19.40;14.90;;;7.90;99.90;;;;;;5013577;28;20195;-38
2023/01/01 08:41:54;;;;;;;13.57;10.00;;;7.90;99.90;;;;;;4980995;28;20222;-36
2023/01/01 08:44:19;;;;;;;13.23;8.87;;;7.90;99.90;;;;;;5014403;28;20179;-40
2023/01/01 08:46:45;;;;;;;10.13;7.73;;;7.90;99.90;;;;;;4997056;28;20191;-36
2023/01/01 08:49:11;;;;;;;11.63;7.33;;;7.90;99.90;;;;;;4996879;28;20179;-36
2023/01/01 08:51:39;;;;;;;12.30;7.03;;;8.10;99.90;;;;;;4996756;28;20237;-40
2023/01/01 08:54:06;;;;;;;13.53;9.30;;;8.20;99.90;;;;;;5015360;28;20195;-38
2023/01/01 08:56:32;;;;;;;15.30;9.80;;;8.30;99.90;;;;;;4996588;28;20187;-36
2023/01/01 08:58:57;;;;;;;11.57;9.03;;;8.40;99.90;;;;;;4979607;28;20179;-38
2023/01/01 09:01:26;;;;;;;16.33;11.50;;;8.50;99.90;;;;;;4996656;28;20207;-36
2023/01/01 09:03:52;;;;;;;10.93;8.00;;;8.60;99.90;;;;;;4996731;28;20183;-36
2023/01/01 09:06:18;;;;;;;9.93;6.97;;;8.60;99.90;;;;;;5014187;28;20194;-36
2023/01/01 09:08:44;;;;;;;10.73;7.00;;;8.80;99.90;;;;;;4980483;28;20265;-35
2023/01/01 09:11:36;;;;;;;11.00;7.80;;;9.00;99.90;;;;;;4979490;28;20298;-41
2023/01/01 09:14:02;;;;;;;11.27;7.23;;;9.00;99.90;;;;;;4974694;28;20218;-37
2023/01/01 09:16:27;;;;;;;9.10;6.67;;;9.10;99.90;;;;;;4981133;28;20261;-39
2023/01/01 09:18:54;;;;;;;8.63;6.43;;;9.20;99.90;;;;;;4980258;28;20187;-38
2023/01/01 09:21:21;;;;;;;9.93;6.83;;;9.30;99.90;;;;;;5013155;28;20279;-38
2023/01/01 09:23:47;;;;;;;9.57;7.00;;;9.40;99.90;;;;;;4979245;28;20222;-39
2023/01/01 09:26:13;;;;;;;13.73;8.77;;;9.50;99.90;;;;;;4980055;28;20187;-36
2023/01/01 09:28:38;;;;;;;15.53;9.03;;;9.60;99.90;;;;;;5014638;28;20475;-38
2023/01/01 09:31:05;;;;;;;14.07;8.97;;;9.60;99.90;;;;;;4979143;28;20180;-38
2023/01/01 09:33:32;;;;;;;12.27;9.80;;;9.70;99.90;;;;;;4979189;28;20196;-37
2023/01/01 09:36:19;;;;;;;19.80;14.20;;;9.80;99.90;;;;;;4979940;28;20268;-36
2023/01/01 09:38:48;;;;;;;16.47;11.47;;;9.90;99.90;;;;;;4994979;28;20551;-36
2023/01/01 09:41:50;;;;;;;11.33;7.97;;;10.00;99.90;;;;;;4995166;28;20213;-36
2023/01/01 09:44:58;;;;;;;10.57;7.07;;;10.10;99.90;;;;;;4979941;28;20199;-36
2023/01/01 09:47:39;;;;;;;11.87;6.90;;;10.20;99.90;;;;;;4996437;28;20175;-38
2023/01/01 09:50:13;;;;;;;12.27;8.07;;;10.30;99.90;;;;;;4994926;28;20190;-36
2023/01/01 09:52:55;;;;;;;12.73;8.73;;;10.40;99.90;;;;;;5013166;28;20275;-36
2023/01/01 09:55:59;;;;;;;17.30;9.37;;;10.40;99.90;;;;;;4978696;28;20261;-40
2023/01/01 09:58:32;;;;;;;10.07;7.83;;;10.60;99.90;;;;;;5013147;28;20241;-36
2023/01/01 10:01:22;;;;;;;11.03;8.37;;;10.80;99.90;;;;;;4995578;28;20181;-38
2023/01/01 10:04:26;;;;;;;8.77;6.90;;;10.90;99.90;;;;;;4995389;28;20213;-36
2023/01/01 10:07:07;;;;;;;10.50;6.70;;;11.10;99.90;;;;;;4995203;28;20206;-39
2023/01/01 10:10:01;;;;;;;10.00;7.07;;;11.20;99.90;;;;;;4979455;28;20182;-38
2023/01/01 10:12:45;;;;;;;8.93;6.63;;;11.30;99.90;;;;;;4995252;28;20212;-38
2023/01/01 10:15:24;;;;;;;10.90;6.97;;;11.30;99.90;;;;;;4995778;28;20185;-38
2023/01/01 10:17:57;;;;;;;9.90;6.47;;;11.40;99.90;;;;;;5013013;28;20191;-36
2023/01/01 10:20:56;;;;;;;9.13;6.30;;;11.50;99.90;;;;;;4994885;28;20193;-36
2023/01/01 10:23:27;;;;;;;9.43;5.77;;;11.50;99.90;;;;;;4973962;28;20232;-37
2023/01/01 10:25:58;;;;;;;9.27;6.00;;;11.60;99.90;;;;;;4996099;28;20181;-37
2023/01/01 10:28:55;;;;;;;10.70;6.37;;;11.60;99.90;;;;;;5012142;28;20217;-37
2023/01/01 10:31:35;;;;;;;7.00;5.80;;;11.70;99.90;;;;;;4978527;28;20199;-39
2023/01/01 10:34:27;;;;;;;7.70;5.73;;;11.90;99.90;;;;;;4974650;28;20241;-38
2023/01/01 10:36:58;;;;;;;7.73;5.63;;;12.10;99.90;;;;;;4975020;28;20194;-37
2023/01/01 10:39:25;;;;;;;7.50;5.77;;;12.10;99.90;;;;;;4975355;28;20179;-36
2023/01/01 10:41:51;;;;;;;7.83;5.43;;;12.10;99.90;;;;;;4975303;28;20221;-36
2023/01/01 10:44:31;;;;;;;8.20;5.77;;;12.20;99.90;;;;;;4958454;28;20193;-42
2023/01/01 10:47:01;;;;;;;6.97;4.80;;;12.20;99.90;;;;;;4960375;28;20179;-39
2023/01/01 10:49:26;;;;;;;6.00;4.33;;;12.30;99.90;;;;;;4958716;28;20182;-39
2023/01/01 10:51:53;;;;;;;9.00;4.87;;;12.40;99.90;;;;;;4975903;28;20199;-39
2023/01/01 10:54:38;;;;;;;6.10;4.67;;;12.60;99.90;;;;;;4959405;28;20278;-39
2023/01/01 10:57:29;;;;;;;7.00;5.07;;;12.70;99.90;;;;;;4979047;28;20189;-36
2023/01/01 11:00:11;;;;;;;5.57;4.30;;;12.90;99.90;;;;;;5003772;28;20186;-38
2023/01/01 11:02:37;;;;;;;6.97;4.03;;;13.10;99.90;;;;;;5012009;28;20211;-36
2023/01/01 11:05:15;;;;;;;7.03;4.20;;;13.30;99.90;;;;;;5011097;28;20211;-38
2023/01/01 11:07:43;;;;;;;5.43;3.57;;;13.40;99.90;;;;;;4977737;28;20183;-37
2023/01/01 11:10:20;;;;;;;6.40;4.00;;;13.50;99.90;;;;;;5011004;28;20197;-35
2023/01/01 11:12:47;;;;;;;5.20;3.60;;;13.60;99.90;;;;;;5011517;28;20268;-39
2023/01/01 11:15:34;;;;;;;4.83;3.87;;;13.70;99.90;;;;;;4994793;28;20254;-39
2023/01/01 11:18:11;;;;;;;4.83;3.80;;;13.80;99.90;;;;;;5011560;28;20183;-39
2023/01/01 11:20:37;;;;;;;7.57;5.13;;;14.00;99.90;;;;;;4993979;28;20179;-36
2023/01/01 11:23:33;;;;;;;6.93;5.20;;;14.10;99.90;;;;;;4994522;28;20222;-36
2023/01/01 11:26:18;;;;;;;7.67;5.97;;;14.10;99.90;;;;;;4993945;28;20179;-38
2023/01/01 11:29:17;;;;;;;14.27;9.20;;;14.20;99.90;;;;;;4993055;28;20179;-37
2023/01/01 11:31:46;;;;;;;30.40;18.47;;;14.30;99.90;;;;;;5031089;28;20202;-36
2023/01/01 11:34:28;;;;;;;24.20;14.67;;;14.30;99.90;;;;;;5012973;28;20189;-39
2023/01/01 11:37:25;;;;;;;13.43;8.80;;;14.40;99.90;;;;;;5030904;28;20206;-36
2023/01/01 11:39:54;;;;;;;11.43;8.70;;;14.40;99.90;;;;;;5014295;28;20185;-37
2023/01/01 11:42:26;;;;;;;12.83;9.37;;;14.50;99.90;;;;;;4996782;28;20218;-39
2023/01/01 11:44:59;;;;;;;9.73;7.80;;;14.60;99.90;;;;;;5031425;28;20171;-39
2023/01/01 11:47:35;;;;;;;9.07;6.87;;;14.60;99.90;;;;;;5034704;28;20185;-39
2023/01/01 11:50:16;;;;;;;7.33;5.13;;;14.70;99.90;;;;;;5000360;28;20205;-38
2023/01/01 11:52:46;;;;;;;6.37;5.17;;;14.80;99.90;;;;;;5000603;28;20198;-40
2023/01/01 11:55:44;;;;;;;5.40;4.30;;;14.80;99.90;;;;;;5000507;28;20189;-39
2023/01/01 11:58:33;;;;;;;7.30;4.37;;;14.90;99.90;;;;;;4980060;28;20199;-39
2023/01/01 12:01:03;;;;;;;6.07;4.57;;;15.00;99.90;;;;;;4973305;28;20192;-41
2023/01/01 12:03:34;;;;;;;4.80;3.90;;;15.00;99.90;;;;;;5034310;28;20199;-39
2023/01/01 12:06:22;;;;;;;7.47;4.23;;;15.10;99.90;;;;;;5034446;28;20187;-38
2023/01/01 12:09:12;;;;;;;7.33;4.00;;;15.20;99.90;;;;;;5016550;28;20182;-39
2023/01/01 12:11:50;;;;;;;6.23;3.73;;;15.20;99.90;;;;;;5016448;28;20195;-38
2023/01/01 12:14:32;;;;;;;5.47;3.77;;;15.30;99.90;;;;;;4999601;28;20285;-38
2023/01/01 12:17:24;;;;;;;4.73;3.60;;;15.30;99.90;;;;;;5034676;28;20205;-38
2023/01/01 12:20:10;;;;;;;6.23;3.13;;;15.40;99.90;;;;;;5005526;28;20285;-39
2023/01/01 12:22:36;;;;;;;4.93;2.83;;;15.50;99.90;;;;;;5015827;28;20348;-38
2023/01/01 12:25:04;;;;;;;6.43;3.37;;;15.50;99.90;;;;;;5015742;28;20178;-39
2023/01/01 12:28:07;;;;;;;3.63;3.20;;;15.60;99.90;;;;;;4993667;28;20187;-39
2023/01/01 12:30:39;;;;;;;7.40;3.40;;;15.70;99.90;;;;;;4991497;28;20212;-37
2023/01/01 12:33:15;;;;;;;6.50;2.80;;;15.80;99.90;;;;;;5015460;28;20199;-37
2023/01/01 12:35:49;;;;;;;5.53;2.90;;;15.80;99.90;;;;;;5033632;28;20209;-37
2023/01/01 12:38:22;;;;;;;4.60;2.80;;;15.90;99.90;;;;;;4999229;28;20178;-36
2023/01/01 12:41:10;;;;;;;5.30;3.57;;;15.90;99.90;;;;;;5033747;28;20186;-37
2023/01/01 12:43:39;;;;;;;4.07;3.00;;;16.00;99.90;;;;;;5015825;28;20257;-37
2023/01/01 12:46:12;;;;;;;5.03;3.00;;;16.00;99.90;;;;;;5015877;28;20266;-36
2023/01/01 12:48:48;;;;;;;5.85;3.47;;;16.00;99.90;;;;;;5033154;28;20232;-38
2023/01/01 12:51:29;;;;;;;7.95;3.63;;;16.10;99.90;;;;;;5015195;28;20192;-37
2023/01/01 12:54:34;;;;;;;4.60;3.53;;;16.10;99.90;;;;;;5015400;28;20183;-37
2023/01/01 12:57:25;;;;;;;4.93;3.70;;;16.20;99.90;;;;;;4997804;28;20261;-38
2023/01/01 12:59:53;;;;;;;3.85;2.88;;;16.30;99.90;;;;;;4996615;28;20174;-37
2023/01/01 13:02:22;;;;;;;8.15;3.42;;;16.30;99.90;;;;;;4995551;28;20218;-37
2023/01/01 13:04:55;;;;;;;4.30;3.40;;;16.40;99.90;;;;;;4995627;28;20255;-39